Time;durP1;ratioP1;P1;durP2;ratioP2;P2;SDS_P1;SDS_P2;PMS_P1;PMS_P2;Temp;Humidity;BMP_temperature;BMP_pressure;BME280_temperature;BME280_humidity;BME280_pressure;Samples;Min_cycle;Max_cycle;Signal;HPM_P1;HPM_P2
2022/06/14 00:01:58;;;;;;;12.30;6.63;;;19.90;99.90;;;;;;5050546;28;20652;-79
2022/06/14 00:04:25;;;;;;;8.20;6.40;;;19.90;99.90;;;;;;5062063;28;20208;-80
2022/06/14 00:06:52;;;;;;;8.77;6.13;;;19.90;99.90;;;;;;5049678;28;20270;-80
2022/06/14 00:09:19;;;;;;;12.77;6.47;;;19.90;99.90;;;;;;5053073;28;20199;-80
2022/06/14 00:11:46;;;;;;;10.90;6.60;;;20.00;99.90;;;;;;5033568;28;20195;-80
2022/06/14 00:14:13;;;;;;;8.67;6.20;;;19.90;99.90;;;;;;5047762;28;20202;-80
2022/06/14 00:16:40;;;;;;;12.83;6.27;;;20.00;99.90;;;;;;5033305;28;20216;-80
2022/06/14 00:19:06;;;;;;;10.13;6.67;;;20.00;99.90;;;;;;5049619;28;20191;-80
2022/06/14 00:21:35;;;;;;;14.33;6.90;;;20.00;99.90;;;;;;5053536;28;20647;-80
2022/06/14 00:24:02;;;;;;;13.03;6.93;;;20.00;99.90;;;;;;5055295;28;20237;-80
2022/06/14 00:26:28;;;;;;;12.37;6.77;;;20.00;99.90;;;;;;5036157;28;20184;-80
2022/06/14 00:28:56;;;;;;;8.27;6.70;;;20.00;99.90;;;;;;5040483;28;20191;-80
2022/06/14 00:31:25;;;;;;;10.50;6.93;;;19.90;99.90;;;;;;5048552;28;20233;-80
2022/06/14 00:33:52;;;;;;;18.97;7.90;;;20.00;99.90;;;;;;5027039;28;20216;-80
2022/06/14 00:36:31;;;;;;;9.63;6.40;;;19.90;99.90;;;;;;5037057;28;20290;-80
2022/06/14 00:39:04;;;;;;;8.40;6.60;;;19.90;99.90;;;;;;5052020;28;20248;-81
2022/06/14 00:41:50;;;;;;;10.93;6.70;;;19.90;99.90;;;;;;5036152;28;20188;-80
2022/06/14 00:44:28;;;;;;;7.33;6.37;;;19.90;99.90;;;;;;5067883;28;20865;-80
2022/06/14 00:47:15;;;;;;;12.63;6.67;;;19.90;99.90;;;;;;5046280;28;20195;-80
2022/06/14 00:49:56;;;;;;;9.30;6.53;;;19.90;99.90;;;;;;5043246;28;20184;-80
2022/06/14 00:52:45;;;;;;;9.27;6.67;;;19.90;99.90;;;;;;5041615;28;20192;-80
2022/06/14 00:55:37;;;;;;;9.67;7.00;;;19.80;99.90;;;;;;5033054;28;20188;-80
2022/06/14 00:58:19;;;;;;;11.90;7.00;;;19.80;99.90;;;;;;5052720;28;20184;-80
2022/06/14 01:01:07;;;;;;;10.83;6.70;;;19.80;99.90;;;;;;5032345;28;20599;-80
2022/06/14 01:03:42;;;;;;;11.07;6.77;;;19.80;99.90;;;;;;5032180;28;20215;-80
2022/06/14 01:06:53;;;;;;;10.23;7.13;;;19.80;99.90;;;;;;5035683;28;20179;-80
2022/06/14 01:09:35;;;;;;;10.90;7.03;;;19.80;99.90;;;;;;5037713;28;20199;-80
2022/06/14 01:12:14;;;;;;;9.23;7.00;;;19.80;99.90;;;;;;5023965;28;20188;-80
2022/06/14 01:15:08;;;;;;;10.13;6.57;;;19.80;99.90;;;;;;5032205;28;20238;-80
2022/06/14 01:17:43;;;;;;;9.73;6.30;;;19.80;99.90;;;;;;5049090;28;20184;-80
2022/06/14 01:20:15;;;;;;;8.03;6.40;;;19.80;99.90;;;;;;5062286;28;20195;-80
2022/06/14 01:22:43;;;;;;;10.40;6.77;;;19.80;99.90;;;;;;5060930;28;20185;-81
2022/06/14 01:25:11;;;;;;;15.23;6.53;;;19.80;99.90;;;;;;5042482;28;20224;-80
2022/06/14 01:27:40;;;;;;;9.73;6.47;;;19.80;99.90;;;;;;5015652;28;20218;-80
2022/06/14 01:30:21;;;;;;;9.77;6.90;;;19.70;99.90;;;;;;5040668;28;20203;-80
2022/06/14 01:33:22;;;;;;;11.67;6.40;;;19.70;99.90;;;;;;5034027;28;20251;-80
2022/06/14 01:35:57;;;;;;;10.53;6.60;;;19.70;99.90;;;;;;5035292;28;20224;-80
2022/06/14 01:38:25;;;;;;;8.80;6.47;;;19.60;99.90;;;;;;5031910;28;20219;-80
2022/06/14 01:41:24;;;;;;;10.03;6.37;;;19.60;99.90;;;;;;5048416;28;20230;-81
2022/06/14 01:44:34;;;;;;;11.03;6.70;;;19.60;99.90;;;;;;5037345;28;20219;-80
2022/06/14 01:47:02;;;;;;;10.97;6.23;;;19.60;99.90;;;;;;5052170;28;20202;-80
2022/06/14 01:53:33;;;;;;;13.20;6.77;;;19.60;99.90;;;;;;5065436;28;20188;-79
2022/06/14 01:56:36;;;;;;;11.57;6.67;;;19.60;99.90;;;;;;5043282;28;20195;-81
2022/06/14 01:59:31;;;;;;;12.57;7.20;;;19.60;99.90;;;;;;5015955;28;20193;-80
2022/06/14 02:02:45;;;;;;;12.20;7.03;;;19.60;99.90;;;;;;5043237;28;20222;-80
2022/06/14 02:05:29;;;;;;;12.47;7.20;;;19.60;99.90;;;;;;5032733;28;20217;-80
2022/06/14 02:08:18;;;;;;;14.27;6.60;;;19.60;99.90;;;;;;5040072;28;20218;-81
2022/06/14 02:11:15;;;;;;;13.60;7.93;;;19.60;99.90;;;;;;5053165;28;20262;-80
2022/06/14 02:14:18;;;;;;;9.70;6.63;;;19.60;99.90;;;;;;5025783;28;20198;-80
2022/06/14 02:17:09;;;;;;;14.50;7.43;;;19.60;99.90;;;;;;5030447;28;20206;-80
2022/06/14 02:20:10;;;;;;;11.93;6.77;;;19.60;99.90;;;;;;5043211;28;20705;-80
2022/06/14 02:22:46;;;;;;;14.53;7.10;;;19.60;99.90;;;;;;5040163;28;20977;-80
2022/06/14 02:25:39;;;;;;;13.80;6.80;;;19.60;99.90;;;;;;5019255;28;20237;-80
2022/06/14 02:28:41;;;;;;;13.07;7.67;;;19.70;99.90;;;;;;5025176;28;20647;-81
2022/06/14 02:31:18;;;;;;;12.73;6.87;;;19.70;99.90;;;;;;5033501;28;20187;-80
2022/06/14 02:34:08;;;;;;;13.90;7.50;;;19.60;99.90;;;;;;5036286;28;20212;-80
2022/06/14 02:36:49;;;;;;;13.07;7.47;;;19.60;99.90;;;;;;5051148;28;20195;-80
2022/06/14 02:39:31;;;;;;;10.27;6.80;;;19.60;99.90;;;;;;5040489;28;20278;-81
2022/06/14 02:42:38;;;;;;;10.47;6.70;;;19.60;99.90;;;;;;5020022;28;20191;-80
2022/06/14 02:45:19;;;;;;;11.30;6.97;;;19.60;99.90;;;;;;5042410;28;20906;-80
2022/06/14 02:48:29;;;;;;;7.97;6.03;;;19.60;99.90;;;;;;5049617;28;20214;-81
2022/06/14 02:51:09;;;;;;;11.07;6.43;;;19.60;99.90;;;;;;5034599;28;20183;-80
2022/06/14 02:54:07;;;;;;;11.60;7.17;;;19.50;99.90;;;;;;5030350;28;20191;-80
2022/06/14 02:56:45;;;;;;;10.63;6.87;;;19.60;99.90;;;;;;5020753;28;20238;-80
2022/06/14 02:59:26;;;;;;;13.33;7.10;;;19.60;99.90;;;;;;5043726;28;20183;-81
2022/06/14 03:02:31;;;;;;;13.03;6.70;;;19.60;99.90;;;;;;5067220;28;20273;-81
2022/06/14 03:05:19;;;;;;;9.47;6.37;;;19.50;99.90;;;;;;5037618;28;20262;-81
2022/06/14 03:08:00;;;;;;;10.73;7.03;;;19.50;99.90;;;;;;5049375;28;20224;-80
2022/06/14 03:10:53;;;;;;;12.97;7.07;;;19.50;99.90;;;;;;5041874;28;20203;-80
2022/06/14 03:13:33;;;;;;;10.73;6.23;;;19.50;99.90;;;;;;5030772;28;20287;-80
2022/06/14 03:16:19;;;;;;;12.00;6.87;;;19.50;99.90;;;;;;5036318;28;20334;-80
2022/06/14 03:19:18;;;;;;;14.77;6.57;;;19.50;99.90;;;;;;5032787;28;20195;-80
2022/06/14 03:22:22;;;;;;;14.00;7.03;;;19.60;99.90;;;;;;5029864;28;20964;-81
2022/06/14 03:25:23;;;;;;;15.13;7.27;;;19.60;99.90;;;;;;5030136;28;20219;-80
2022/06/14 03:28:28;;;;;;;10.47;6.70;;;19.60;99.90;;;;;;5032937;28;20187;-80
2022/06/14 03:31:03;;;;;;;16.30;7.03;;;19.70;99.90;;;;;;5050322;28;20191;-80
2022/06/14 03:33:43;;;;;;;13.93;6.93;;;19.70;99.90;;;;;;5032665;28;20211;-80
2022/06/14 03:36:10;;;;;;;11.53;6.43;;;19.70;99.90;;;;;;5033934;28;20275;-80
2022/06/14 03:38:53;;;;;;;13.47;7.10;;;19.70;99.90;;;;;;5051075;28;20198;-81
2022/06/14 03:41:26;;;;;;;10.40;6.73;;;19.80;99.90;;;;;;5054471;28;20187;-80
2022/06/14 03:43:59;;;;;;;11.77;7.00;;;19.80;99.90;;;;;;5037362;28;20221;-80
2022/06/14 03:46:41;;;;;;;11.57;7.00;;;19.80;99.90;;;;;;5053664;28;20195;-80
2022/06/14 03:49:21;;;;;;;10.57;6.43;;;19.80;99.90;;;;;;5034593;28;21034;-80
2022/06/14 03:52:19;;;;;;;11.60;7.00;;;19.90;99.90;;;;;;5022267;28;20289;-80
2022/06/14 03:55:21;;;;;;;10.80;6.47;;;19.80;99.90;;;;;;5043795;28;20207;-80
2022/06/14 03:58:26;;;;;;;13.73;6.77;;;19.80;99.90;;;;;;5037367;28;20179;-80
2022/06/14 04:01:18;;;;;;;9.50;6.20;;;19.80;99.90;;;;;;5034160;28;20191;-80
2022/06/14 04:04:14;;;;;;;10.67;6.30;;;19.90;99.90;;;;;;5052798;28;20661;-80
2022/06/14 04:07:13;;;;;;;11.20;6.90;;;19.90;99.90;;;;;;5032556;28;20218;-80
2022/06/14 04:10:23;;;;;;;12.03;6.97;;;19.90;99.90;;;;;;5023866;28;20250;-80
2022/06/14 04:13:02;;;;;;;10.90;6.80;;;19.90;99.90;;;;;;5050550;28;20278;-81
2022/06/14 04:15:44;;;;;;;11.57;7.20;;;20.00;99.90;;;;;;5037124;28;20195;-80
2022/06/14 04:18:44;;;;;;;13.47;7.23;;;20.10;99.90;;;;;;5029548;28;20196;-80
2022/06/14 04:21:15;;;;;;;12.90;6.43;;;20.20;99.90;;;;;;5046909;28;20192;-81
2022/06/14 04:24:10;;;;;;;14.77;6.90;;;20.30;99.90;;;;;;5049805;28;20291;-80
2022/06/14 04:27:11;;;;;;;10.53;6.13;;;20.30;99.90;;;;;;5033802;28;20215;-80
2022/06/14 04:29:47;;;;;;;9.23;6.60;;;20.40;99.90;;;;;;5033925;28;20183;-80
2022/06/14 04:33:01;;;;;;;10.37;5.93;;;20.40;99.90;;;;;;5040208;28;20187;-80
2022/06/14 04:35:57;;;;;;;12.87;6.57;;;20.40;99.90;;;;;;5033228;28;20192;-80
2022/06/14 04:38:36;;;;;;;10.03;5.90;;;20.50;99.90;;;;;;5062204;28;20226;-81
2022/06/14 04:41:21;;;;;;;9.97;6.07;;;20.60;99.90;;;;;;5016800;28;20188;-80
2022/06/14 04:44:09;;;;;;;11.77;5.87;;;20.70;99.90;;;;;;5015550;28;20211;-80
2022/06/14 04:46:52;;;;;;;14.37;5.97;;;20.80;99.90;;;;;;5050263;28;20287;-80
2022/06/14 04:49:34;;;;;;;10.13;5.80;;;20.90;99.90;;;;;;5036112;28;20193;-80
2022/06/14 04:52:23;;;;;;;11.20;5.90;;;21.00;99.90;;;;;;5051462;28;20207;-80
2022/06/14 04:54:58;;;;;;;14.60;6.17;;;21.00;99.90;;;;;;5035379;28;20223;-80
2022/06/14 04:58:03;;;;;;;13.80;6.47;;;21.00;99.90;;;;;;5034926;28;20194;-80
2022/06/14 05:00:56;;;;;;;12.03;5.90;;;21.00;99.90;;;;;;5051896;28;20199;-80
2022/06/14 05:03:41;;;;;;;8.90;5.97;;;21.00;99.90;;;;;;5052057;28;20282;-80
2022/06/14 05:06:28;;;;;;;11.50;5.80;;;21.00;99.90;;;;;;5038497;28;20214;-80
2022/06/14 05:09:09;;;;;;;14.57;6.77;;;21.00;99.90;;;;;;5034887;28;20191;-79
2022/06/14 05:12:11;;;;;;;14.27;6.30;;;21.00;99.90;;;;;;5031634;28;20187;-80
2022/06/14 05:15:19;;;;;;;10.80;6.00;;;21.00;99.90;;;;;;5035725;28;20194;-80
2022/06/14 05:17:54;;;;;;;8.73;5.23;;;20.90;99.90;;;;;;5033021;28;20183;-80
2022/06/14 05:20:27;;;;;;;10.77;5.70;;;21.00;99.90;;;;;;5035374;28;20214;-80
2022/06/14 05:23:10;;;;;;;11.05;5.95;;;21.00;99.90;;;;;;5034902;28;20222;-80
2022/06/14 05:26:02;;;;;;;9.33;5.47;;;21.10;99.90;;;;;;5043490;28;20261;-80
2022/06/14 05:28:56;;;;;;;10.83;5.10;;;21.20;99.90;;;;;;5051473;28;20253;-80
2022/06/14 05:31:44;;;;;;;10.27;5.63;;;21.30;99.90;;;;;;5033356;28;20184;-80
2022/06/14 05:34:55;;;;;;;8.97;5.10;;;21.20;99.90;;;;;;5015787;28;20200;-80
2022/06/14 05:37:52;;;;;;;10.10;5.57;;;21.30;99.90;;;;;;5047727;28;20196;-80
2022/06/14 05:40:56;;;;;;;9.90;5.77;;;21.40;99.90;;;;;;5041964;28;20191;-80
2022/06/14 05:43:39;;;;;;;8.27;5.13;;;21.50;99.90;;;;;;5022678;28;20180;-80
2022/06/14 05:46:28;;;;;;;7.60;5.43;;;21.60;99.90;;;;;;5042416;28;20191;-82
2022/06/14 05:49:14;;;;;;;15.87;5.60;;;21.60;99.90;;;;;;5047788;28;20280;-80
2022/06/14 05:52:13;;;;;;;9.77;5.13;;;21.70;99.90;;;;;;5035499;28;20194;-80
2022/06/14 05:55:21;;;;;;;8.43;4.43;;;21.70;99.90;;;;;;5044035;28;20191;-80
2022/06/14 05:58:06;;;;;;;8.18;4.60;;;21.70;99.90;;;;;;5023991;28;20207;-80
2022/06/14 06:01:34;;;;;;;8.07;5.07;;;21.90;99.90;;;;;;5041780;28;20187;-81
2022/06/14 06:04:39;;;;;;;10.02;5.22;;;22.00;99.90;;;;;;4983244;28;20574;-81
2022/06/14 06:07:27;;;;;;;8.52;4.82;;;22.10;99.90;;;;;;5041472;28;20195;-82
2022/06/14 06:10:14;;;;;;;8.20;4.20;;;22.10;99.90;;;;;;5044220;28;20208;-81
2022/06/14 06:12:55;;;;;;;11.27;4.53;;;22.20;99.90;;;;;;5014107;28;20664;-81
2022/06/14 06:15:47;;;;;;;9.32;4.97;;;22.30;99.90;;;;;;5039940;28;20187;-80
2022/06/14 06:19:02;;;;;;;8.23;4.57;;;22.30;99.90;;;;;;5018001;28;20191;-81
2022/06/14 06:22:02;;;;;;;9.82;4.60;;;22.40;99.90;;;;;;5016792;28;20683;-82
2022/06/14 06:24:54;;;;;;;6.15;4.10;;;22.60;99.90;;;;;;5035928;28;20204;-81
2022/06/14 06:27:39;;;;;;;7.82;4.18;;;22.70;99.90;;;;;;5040550;28;20267;-82
2022/06/14 06:30:39;;;;;;;7.72;4.30;;;22.70;99.90;;;;;;5042804;28;20184;-82
2022/06/14 06:33:13;;;;;;;8.23;4.47;;;22.70;99.90;;;;;;5025031;28;20215;-82
2022/06/14 06:36:19;;;;;;;10.20;5.07;;;22.70;99.90;;;;;;5028437;28;20187;-82
2022/06/14 06:39:33;;;;;;;8.93;4.38;;;22.50;99.90;;;;;;5031903;28;20221;-82
2022/06/14 06:42:35;;;;;;;7.50;5.07;;;22.40;99.90;;;;;;5030944;28;20241;-82
2022/06/14 06:45:28;;;;;;;7.53;4.10;;;22.50;99.90;;;;;;5038313;28;20199;-82
2022/06/14 06:48:15;;;;;;;8.35;5.25;;;22.70;99.90;;;;;;5032554;28;20198;-81
2022/06/14 06:50:53;;;;;;;6.63;4.25;;;22.80;99.90;;;;;;5043118;28;20201;-82
2022/06/14 06:53:53;;;;;;;13.00;5.10;;;22.90;99.90;;;;;;5040915;28;20812;-81
2022/06/14 06:56:37;;;;;;;9.13;4.50;;;22.90;99.90;;;;;;5030776;28;20298;-82
2022/06/14 06:59:29;;;;;;;13.15;5.05;;;23.00;99.90;;;;;;5049491;28;20213;-82
2022/06/14 07:02:04;;;;;;;7.97;5.25;;;23.20;99.90;;;;;;5032900;28;20266;-82
2022/06/14 07:07:49;;;;;;;8.50;4.55;;;23.20;99.90;;;;;;5048425;28;20210;-82
2022/06/14 07:10:51;;;;;;;11.30;4.82;;;23.10;99.90;;;;;;5013654;28;20180;-81
2022/06/14 07:13:49;;;;;;;10.18;4.53;;;23.10;99.90;;;;;;5036908;28;20198;-82
2022/06/14 07:16:49;;;;;;;7.90;4.50;;;23.10;99.90;;;;;;5022926;28;20242;-81
2022/06/14 07:20:00;;;;;;;9.15;4.45;;;23.30;99.90;;;;;;5022980;28;20194;-80
2022/06/14 07:22:42;;;;;;;9.90;4.07;;;23.50;99.90;;;;;;5041371;28;20253;-81
2022/06/14 07:25:50;;;;;;;6.35;4.55;;;23.60;99.90;;;;;;5037417;28;20211;-81
2022/06/14 07:28:40;;;;;;;9.18;4.30;;;23.60;99.90;;;;;;5045122;28;20203;-80
2022/06/14 07:31:27;;;;;;;8.82;4.45;;;23.60;99.90;;;;;;5022197;28;20234;-80
2022/06/14 07:33:57;;;;;;;10.75;4.72;;;23.70;99.90;;;;;;5022886;28;20281;-80
2022/06/14 07:36:59;;;;;;;8.77;4.10;;;23.70;99.90;;;;;;5029501;28;20187;-80
2022/06/14 07:39:57;;;;;;;8.65;4.45;;;23.90;99.90;;;;;;5035621;28;20266;-80
2022/06/14 07:43:04;;;;;;;11.57;4.28;;;24.10;99.90;;;;;;5045543;28;20234;-81
2022/06/14 07:45:43;;;;;;;7.53;4.15;;;24.10;99.90;;;;;;5028002;28;20207;-81
2022/06/14 07:48:43;;;;;;;9.45;4.47;;;23.80;99.90;;;;;;5028717;28;20203;-82
2022/06/14 07:51:44;;;;;;;9.93;4.45;;;23.70;99.90;;;;;;5038441;28;20184;-82
2022/06/14 07:54:31;;;;;;;11.32;5.05;;;23.60;99.90;;;;;;5021920;28;20180;-82
2022/06/14 07:57:30;;;;;;;9.05;4.22;;;23.60;99.90;;;;;;5025870;28;20194;-82
2022/06/14 08:03:46;;;;;;;7.60;4.57;;;23.30;99.90;;;;;;5054311;28;20194;-81
2022/06/14 08:06:26;;;;;;;9.13;4.70;;;23.30;99.90;;;;;;5018736;28;20240;-82
2022/06/14 08:09:07;;;;;;;9.25;4.47;;;23.20;99.90;;;;;;5020964;28;20721;-82
2022/06/14 08:12:01;;;;;;;8.93;4.47;;;23.20;99.90;;;;;;5025962;28;20200;-82
2022/06/14 08:14:56;;;;;;;6.93;4.53;;;23.50;99.90;;;;;;5040962;28;20187;-81
2022/06/14 08:17:59;;;;;;;7.72;3.88;;;23.70;99.90;;;;;;5027500;28;20179;-82
2022/06/14 08:21:01;;;;;;;8.20;4.00;;;24.10;99.90;;;;;;5024082;28;20175;-82
2022/06/14 08:23:41;;;;;;;7.35;4.05;;;24.50;99.90;;;;;;5031104;28;20547;-82
2022/06/14 08:26:46;;;;;;;7.05;3.88;;;24.50;99.90;;;;;;5061268;28;20192;-82
2022/06/14 08:29:33;;;;;;;11.90;3.95;;;24.90;99.90;;;;;;5048906;28;20785;-82
2022/06/14 08:32:49;;;;;;;10.40;4.18;;;25.20;99.90;;;;;;5039531;28;20199;-82
2022/06/14 08:35:46;;;;;;;7.45;3.33;;;25.40;99.90;;;;;;5030104;28;20603;-82
2022/06/14 08:38:54;;;;;;;9.65;4.47;;;25.40;99.90;;;;;;5026883;28;20326;-82
2022/06/14 08:42:15;;;;;;;9.65;3.80;;;25.40;99.90;;;;;;5045942;28;21211;-82
2022/06/14 08:44:55;;;;;;;8.25;4.63;;;25.20;99.90;;;;;;5035554;28;20262;-81
2022/06/14 08:47:54;;;;;;;11.63;4.20;;;24.90;99.90;;;;;;5029234;28;20204;-81
2022/06/14 08:50:42;;;;;;;7.97;4.10;;;24.80;99.90;;;;;;5043767;28;20172;-81
2022/06/14 08:53:27;;;;;;;9.98;4.13;;;24.60;99.90;;;;;;5025826;28;20207;-81
2022/06/14 08:56:17;;;;;;;6.75;3.70;;;24.50;99.90;;;;;;5029826;28;20179;-81
2022/06/14 08:59:09;;;;;;;8.15;3.70;;;24.70;99.90;;;;;;5057983;28;20211;-82
2022/06/14 09:02:33;;;;;;;5.93;4.10;;;25.00;99.90;;;;;;5041246;28;20189;-83
2022/06/14 09:05:23;;;;;;;8.45;3.40;;;25.30;99.90;;;;;;5041583;28;20303;-81
2022/06/14 09:08:47;;;;;;;10.25;3.75;;;25.70;99.90;;;;;;5018669;28;20227;-81
2022/06/14 09:11:34;;;;;;;7.15;3.67;;;25.60;99.90;;;;;;5040549;28;20199;-82
2022/06/14 09:14:46;;;;;;;7.40;4.10;;;25.40;99.90;;;;;;5062326;28;20209;-82
2022/06/14 09:18:22;;;;;;;5.68;3.67;;;25.50;99.90;;;;;;5044625;28;20191;-80
2022/06/14 09:21:22;;;;;;;7.80;3.40;;;25.90;99.90;;;;;;5034269;28;20659;-81
2022/06/14 09:24:27;;;;;;;8.65;3.67;;;26.00;99.90;;;;;;5049287;28;20286;-81
2022/06/14 09:27:31;;;;;;;7.13;3.80;;;25.90;99.90;;;;;;5034712;28;20211;-81
2022/06/14 09:30:25;;;;;;;8.70;4.00;;;25.90;99.90;;;;;;5031905;28;20273;-81
2022/06/14 09:33:40;;;;;;;8.45;3.67;;;26.20;99.90;;;;;;5035538;28;20309;-81
2022/06/14 09:36:57;;;;;;;11.80;3.65;;;26.00;99.90;;;;;;5033147;28;20203;-80
2022/06/14 09:39:44;;;;;;;9.85;3.90;;;26.00;99.90;;;;;;5021578;28;20183;-82
2022/06/14 09:42:51;;;;;;;7.40;3.72;;;26.30;99.90;;;;;;5022823;28;20290;-80
2022/06/14 09:46:14;;;;;;;13.52;4.93;;;26.60;99.90;;;;;;5040624;28;20219;-81
2022/06/14 09:49:33;;;;;;;10.52;3.65;;;26.90;99.90;;;;;;5060509;28;20210;-80
2022/06/14 09:52:33;;;;;;;10.23;3.83;;;26.60;99.90;;;;;;5027600;28;20539;-82
2022/06/14 09:55:50;;;;;;;10.48;3.83;;;26.70;99.90;;;;;;5035797;28;20237;-80
2022/06/14 09:58:51;;;;;;;8.15;3.90;;;26.80;99.90;;;;;;5047965;28;20214;-79
2022/06/14 10:01:54;;;;;;;8.93;3.92;;;27.10;99.90;;;;;;5028999;28;20658;-79
2022/06/14 10:05:06;;;;;;;7.30;3.72;;;27.00;99.90;;;;;;5018748;28;20590;-80
2022/06/14 10:08:12;;;;;;;7.15;3.58;;;26.90;99.90;;;;;;5036452;28;20663;-80
2022/06/14 10:11:06;;;;;;;10.10;3.97;;;26.80;99.90;;;;;;5047964;28;20325;-80
2022/06/14 10:13:45;;;;;;;10.27;3.72;;;27.00;99.90;;;;;;5038367;28;20189;-79
2022/06/14 10:16:58;;;;;;;6.95;3.72;;;27.40;99.90;;;;;;5024345;28;20544;-79
2022/06/14 10:19:56;;;;;;;7.07;3.42;;;27.40;99.90;;;;;;5034249;28;20194;-80
2022/06/14 10:23:06;;;;;;;7.10;3.20;;;27.30;99.90;;;;;;5031811;28;20526;-80
2022/06/14 10:29:44;;;;;;;10.40;3.92;;;27.00;99.90;;;;;;5048977;28;20197;-79
2022/06/14 10:33:08;;;;;;;9.55;3.92;;;27.10;99.90;;;;;;5047103;28;20211;-79
2022/06/14 10:36:08;;;;;;;8.98;4.05;;;27.20;99.90;;;;;;5024412;28;20188;-82
2022/06/14 10:39:20;;;;;;;9.32;3.90;;;27.30;99.90;;;;;;5020248;28;20214;-79
2022/06/14 10:42:09;;;;;;;6.18;4.10;;;27.10;99.90;;;;;;5023428;28;20663;-78
2022/06/14 10:45:12;;;;;;;9.15;4.00;;;27.20;99.90;;;;;;5024486;28;20196;-82
2022/06/14 10:48:21;;;;;;;7.72;3.85;;;27.20;99.90;;;;;;5028485;28;20230;-81
2022/06/14 10:51:15;;;;;;;8.95;3.95;;;27.30;99.90;;;;;;5029387;28;20219;-81
2022/06/14 10:54:04;;;;;;;6.38;3.75;;;27.30;99.90;;;;;;5039007;28;21073;-82
2022/06/14 10:56:57;;;;;;;7.60;3.63;;;27.30;99.90;;;;;;5042787;28;20188;-80
2022/06/14 10:59:55;;;;;;;8.52;3.45;;;27.40;99.90;;;;;;5023886;28;20207;-80
2022/06/14 11:02:57;;;;;;;9.23;4.28;;;27.30;99.90;;;;;;5025529;28;20236;-80
2022/06/14 11:05:54;;;;;;;11.70;4.13;;;26.90;99.90;;;;;;5046007;28;20195;-80
2022/06/14 11:08:42;;;;;;;8.10;3.90;;;26.80;99.90;;;;;;5030361;28;20186;-79
2022/06/14 11:11:38;;;;;;;8.63;4.03;;;26.80;99.90;;;;;;5025252;28;20193;-80
2022/06/14 11:14:30;;;;;;;10.40;4.15;;;26.80;99.90;;;;;;5028924;28;20187;-79
2022/06/14 11:17:32;;;;;;;8.43;3.95;;;26.80;99.90;;;;;;5031991;28;20188;-80
2022/06/14 11:20:21;;;;;;;11.05;4.07;;;26.70;99.90;;;;;;5038875;28;20210;-80
2022/06/14 11:23:13;;;;;;;8.55;3.92;;;26.70;99.90;;;;;;5013243;28;20192;-80
2022/06/14 11:26:06;;;;;;;7.90;4.05;;;26.40;99.90;;;;;;5027690;28;20215;-80
2022/06/14 11:29:17;;;;;;;10.43;4.10;;;26.50;99.90;;;;;;5033055;28;20187;-80
2022/06/14 11:32:02;;;;;;;9.43;4.15;;;26.50;99.90;;;;;;5033141;28;20194;-80
2022/06/14 11:35:02;;;;;;;5.93;3.95;;;26.60;99.90;;;;;;5062368;28;20271;-81
2022/06/14 11:37:48;;;;;;;9.52;4.25;;;26.60;99.90;;;;;;5030343;28;20553;-80
2022/06/14 11:40:29;;;;;;;11.02;4.10;;;26.60;99.90;;;;;;5041814;28;20195;-80
2022/06/14 11:43:32;;;;;;;8.52;4.22;;;26.60;99.90;;;;;;5023462;28;20546;-80
2022/06/14 11:46:18;;;;;;;9.07;4.15;;;26.40;99.90;;;;;;5037190;28;20226;-81
2022/06/14 11:49:16;;;;;;;6.55;4.13;;;26.50;99.90;;;;;;5033003;28;20660;-80
2022/06/14 11:51:53;;;;;;;7.85;4.10;;;26.50;99.90;;;;;;5031522;28;20176;-80
2022/06/14 11:54:48;;;;;;;8.32;4.10;;;26.50;99.90;;;;;;5024329;28;20187;-81
2022/06/14 11:57:35;;;;;;;8.23;4.25;;;26.60;99.90;;;;;;5042095;28;20234;-80
2022/06/14 12:00:46;;;;;;;6.82;3.78;;;26.50;99.90;;;;;;5044002;28;20184;-80
2022/06/14 12:04:13;;;;;;;11.45;4.32;;;26.40;99.90;;;;;;5044356;28;20250;-80
2022/06/14 12:07:06;;;;;;;12.15;4.43;;;26.20;99.90;;;;;;5034743;28;20207;-80
2022/06/14 12:10:30;;;;;;;9.63;4.20;;;26.20;99.90;;;;;;5025017;28;20238;-80
2022/06/14 12:13:16;;;;;;;5.45;4.05;;;26.10;99.90;;;;;;5032726;28;20196;-80
2022/06/14 12:16:40;;;;;;;8.60;3.80;;;26.10;99.90;;;;;;5043936;28;20184;-79
2022/06/14 12:19:09;;;;;;;8.30;4.38;;;26.30;99.90;;;;;;5021472;28;20184;-79
2022/06/14 12:22:28;;;;;;;6.57;4.40;;;26.30;99.90;;;;;;5019286;28;20183;-79
2022/06/14 12:28:09;;;;;;;8.07;4.80;;;26.20;99.90;;;;;;5042090;28;20668;-80
2022/06/14 12:30:38;;;;;;;6.65;4.15;;;26.20;99.90;;;;;;5063221;28;20800;-80
2022/06/14 12:33:29;;;;;;;8.35;4.53;;;26.10;99.90;;;;;;5036196;28;20687;-79
2022/06/14 12:36:35;;;;;;;5.43;3.85;;;26.00;99.90;;;;;;5040450;28;20183;-80
2022/06/14 12:39:11;;;;;;;11.80;4.57;;;25.80;99.90;;;;;;5029568;28;20196;-79
2022/06/14 12:42:18;;;;;;;8.05;4.47;;;25.80;99.90;;;;;;5043139;28;20187;-79
2022/06/14 12:45:10;;;;;;;13.35;4.70;;;25.70;99.90;;;;;;5025855;28;20208;-79
2022/06/14 12:48:17;;;;;;;7.93;4.50;;;25.70;99.90;;;;;;5040162;28;20627;-80
2022/06/14 12:51:00;;;;;;;10.73;4.75;;;25.80;99.90;;;;;;5044506;28;20179;-81
2022/06/14 12:54:06;;;;;;;13.13;4.75;;;26.10;99.90;;;;;;5056577;28;20255;-79
2022/06/14 12:56:48;;;;;;;7.75;4.22;;;26.10;99.90;;;;;;5041070;28;20194;-78
2022/06/14 12:59:26;;;;;;;9.20;4.65;;;26.10;99.90;;;;;;5032642;28;20187;-80
2022/06/14 13:02:36;;;;;;;8.80;4.90;;;26.10;99.90;;;;;;5035202;28;20183;-80
2022/06/14 13:05:28;;;;;;;10.52;4.43;;;25.90;99.90;;;;;;5049985;28;20714;-81
2022/06/14 13:08:57;;;;;;;9.30;4.45;;;25.70;99.90;;;;;;5040205;28;20196;-79
2022/06/14 13:11:53;;;;;;;9.75;4.63;;;25.60;99.90;;;;;;5011079;28;20186;-81
2022/06/14 13:15:09;;;;;;;7.38;4.40;;;25.50;99.90;;;;;;5035250;28;20191;-80
2022/06/14 13:18:07;;;;;;;6.07;4.43;;;25.80;99.90;;;;;;5039551;28;20270;-79
2022/06/14 13:21:23;;;;;;;11.15;4.25;;;25.80;99.90;;;;;;5020934;28;20200;-80
2022/06/14 13:24:44;;;;;;;8.13;4.40;;;25.70;99.90;;;;;;5030634;28;20223;-81
2022/06/14 13:27:36;;;;;;;4.97;3.92;;;25.50;99.90;;;;;;5039485;28;20191;-80
2022/06/14 13:30:46;;;;;;;9.63;4.03;;;25.60;99.90;;;;;;5025126;28;20198;-80
2022/06/14 13:33:31;;;;;;;7.28;4.18;;;25.50;99.90;;;;;;5028049;28;20204;-80
2022/06/14 13:36:22;;;;;;;11.88;4.95;;;25.40;99.90;;;;;;5053851;28;20395;-81
2022/06/14 13:39:30;;;;;;;9.68;4.88;;;25.70;99.90;;;;;;5039048;28;20191;-81
2022/06/14 13:42:23;;;;;;;8.15;4.63;;;25.80;99.90;;;;;;5044416;28;20199;-80
2022/06/14 13:45:17;;;;;;;8.25;4.35;;;25.70;99.90;;;;;;5016651;28;20241;-80
2022/06/14 13:47:57;;;;;;;12.20;5.05;;;25.70;99.90;;;;;;5041242;28;20720;-80
2022/06/14 13:50:57;;;;;;;12.30;4.82;;;25.70;99.90;;;;;;5044413;28;20238;-79
2022/06/14 13:53:39;;;;;;;11.93;5.13;;;25.80;99.90;;;;;;5056521;28;20199;-80
2022/06/14 13:56:19;;;;;;;11.48;4.85;;;25.80;99.90;;;;;;5042201;28;20659;-81
2022/06/14 13:59:06;;;;;;;14.18;4.72;;;25.90;99.90;;;;;;5038077;28;20180;-81
2022/06/14 14:01:46;;;;;;;11.38;4.68;;;25.90;99.90;;;;;;5023096;28;20181;-80
2022/06/14 14:04:33;;;;;;;9.48;4.65;;;25.80;99.90;;;;;;5042803;28;20683;-80
2022/06/14 14:07:13;;;;;;;10.18;4.82;;;25.60;99.90;;;;;;5021762;28;20188;-79
2022/06/14 14:10:04;;;;;;;16.90;6.30;;;25.30;99.90;;;;;;5050107;28;20263;-84
2022/06/14 14:12:51;;;;;;;11.85;5.50;;;25.10;99.90;;;;;;5038897;28;20250;-87
2022/06/14 14:15:49;;;;;;;14.13;5.97;;;24.90;99.90;;;;;;5029364;28;20192;-87
2022/06/14 14:21:57;;;;;;;15.35;6.20;;;24.80;99.90;;;;;;5040370;28;20258;-87
2022/06/14 14:24:56;;;;;;;10.07;6.07;;;24.80;99.90;;;;;;5045228;28;20200;-87
2022/06/14 14:28:04;;;;;;;11.10;5.63;;;24.80;99.90;;;;;;5048616;28;20188;-83
2022/06/14 14:31:10;;;;;;;10.70;6.00;;;24.90;99.90;;;;;;5026595;28;20184;-86
2022/06/14 14:34:02;;;;;;;12.40;6.00;;;24.90;99.90;;;;;;5036615;28;20242;-87
2022/06/14 14:37:18;;;;;;;11.40;6.25;;;24.90;99.90;;;;;;5051252;28;20229;-86
2022/06/14 14:40:14;;;;;;;11.90;5.68;;;24.80;99.90;;;;;;5034548;28;20191;-87
2022/06/14 14:42:56;;;;;;;10.25;6.43;;;24.80;99.90;;;;;;5048240;28;20907;-86
2022/06/14 14:46:14;;;;;;;14.55;6.22;;;24.70;99.90;;;;;;5033562;28;20201;-87
2022/06/14 14:49:11;;;;;;;12.52;5.88;;;24.70;99.90;;;;;;5025731;28;20291;-86
2022/06/14 14:51:52;;;;;;;14.40;6.88;;;24.70;99.90;;;;;;5022723;28;20565;-87
2022/06/14 14:54:49;;;;;;;11.73;6.18;;;24.60;99.90;;;;;;5049279;28;20199;-87
2022/06/14 14:57:45;;;;;;;14.13;6.53;;;24.60;99.90;;;;;;5022436;28;20203;-86
2022/06/14 15:06:49;;;;;;;11.00;6.30;;;24.60;99.90;;;;;;5030669;28;20203;-86
2022/06/14 15:09:33;;;;;;;14.75;6.78;;;24.60;99.90;;;;;;5039881;28;20635;-86
2022/06/14 15:12:17;;;;;;;14.70;6.30;;;24.60;99.90;;;;;;5048554;28;20184;-85
2022/06/14 15:15:00;;;;;;;11.60;6.20;;;24.60;99.90;;;;;;5043246;28;20640;-85
2022/06/14 15:20:21;;;;;;;9.88;6.07;;;24.50;99.90;;;;;;5045527;28;20211;-85